Time;durP1;ratioP1;P1;durP2;ratioP2;P2;SDS_P1;SDS_P2;PMS_P1;PMS_P2;Temp;Humidity;BMP_temperature;BMP_pressure;BME280_temperature;BME280_humidity;BME280_pressure;Samples;Min_cycle;Max_cycle;Signal;HPM_P1;HPM_P2
2020/12/26 00:00:20;;;;;;;6.28;2.08;;;0.90;99.90;;;;;;4964752;28;20027;-61
2020/12/26 00:02:46;;;;;;;5.55;1.95;;;1.00;99.90;;;;;;4963090;28;20034;-60
2020/12/26 00:05:12;;;;;;;4.53;1.70;;;1.10;99.90;;;;;;4960772;28;20066;-61
2020/12/26 00:07:38;;;;;;;12.30;2.13;;;1.10;99.90;;;;;;4966198;28;20034;-61
2020/12/26 00:10:05;;;;;;;6.35;1.67;;;1.20;99.90;;;;;;4964701;28;20030;-60
2020/12/26 00:12:32;;;;;;;9.27;2.22;;;1.40;99.90;;;;;;4966859;28;20166;-61
2020/12/26 00:14:58;;;;;;;5.82;1.85;;;1.40;99.90;;;;;;4965515;28;20042;-61
2020/12/26 00:17:23;;;;;;;5.13;1.75;;;1.40;99.90;;;;;;4967856;28;20069;-61
2020/12/26 00:19:49;;;;;;;5.38;1.85;;;1.30;99.90;;;;;;4966801;28;20038;-60
2020/12/26 00:22:15;;;;;;;13.15;2.03;;;1.20;99.90;;;;;;4964402;28;20030;-61
2020/12/26 00:24:41;;;;;;;2.90;1.50;;;1.20;99.90;;;;;;4966872;28;20046;-61
2020/12/26 00:27:07;;;;;;;6.18;1.50;;;1.10;99.90;;;;;;4967027;28;20040;-61
2020/12/26 00:29:33;;;;;;;7.25;1.83;;;1.10;99.90;;;;;;4967150;28;20412;-61
2020/12/26 00:31:59;;;;;;;7.03;1.63;;;1.10;99.90;;;;;;4964828;28;20038;-61
2020/12/26 00:34:25;;;;;;;4.60;1.88;;;1.10;99.90;;;;;;4966342;28;20076;-61
2020/12/26 00:36:51;;;;;;;3.35;1.35;;;1.10;99.90;;;;;;4964587;28;20030;-61
2020/12/26 00:39:17;;;;;;;7.40;1.73;;;1.10;99.90;;;;;;4966190;28;20557;-61
2020/12/26 00:41:45;;;;;;;3.53;1.67;;;1.10;99.90;;;;;;4965958;28;20172;-61
2020/12/26 00:44:11;;;;;;;8.45;2.22;;;1.30;99.90;;;;;;4965004;28;20441;-61
2020/12/26 00:46:37;;;;;;;5.45;2.05;;;1.40;99.90;;;;;;4966359;28;20046;-61
2020/12/26 00:49:03;;;;;;;5.20;1.50;;;1.40;99.90;;;;;;4966537;28;20026;-61
2020/12/26 00:51:29;;;;;;;4.93;1.60;;;1.50;99.90;;;;;;4966541;28;20046;-60
2020/12/26 00:53:54;;;;;;;4.90;1.40;;;1.50;99.90;;;;;;4963259;28;20027;-61
2020/12/26 00:56:20;;;;;;;5.22;1.42;;;1.60;99.90;;;;;;4965529;28;20039;-61
2020/12/26 00:58:46;;;;;;;7.03;2.55;;;1.50;99.90;;;;;;4966088;28;20030;-61
2020/12/26 01:01:17;;;;;;;8.00;1.92;;;1.70;99.90;;;;;;4967674;28;20030;-61
2020/12/26 01:03:43;;;;;;;5.65;2.20;;;1.80;99.90;;;;;;4962650;28;20030;-61
2020/12/26 01:06:15;;;;;;;4.85;1.80;;;1.70;99.90;;;;;;4966827;28;20074;-61
2020/12/26 01:08:41;;;;;;;3.95;1.88;;;1.70;99.90;;;;;;4966603;28;20038;-61
2020/12/26 01:11:08;;;;;;;5.25;2.05;;;1.70;99.90;;;;;;4963710;28;20077;-61
2020/12/26 01:13:34;;;;;;;7.32;2.38;;;1.80;99.90;;;;;;4963130;28;20397;-60
2020/12/26 01:16:00;;;;;;;5.30;2.38;;;1.80;99.90;;;;;;4968003;28;20114;-60
2020/12/26 01:18:28;;;;;;;8.27;2.15;;;2.00;99.90;;;;;;4968092;28;20063;-60
2020/12/26 01:20:58;;;;;;;4.45;1.80;;;2.00;99.90;;;;;;4968611;28;20481;-60
2020/12/26 01:23:24;;;;;;;7.97;1.58;;;2.10;99.90;;;;;;4967113;28;20855;-60
2020/12/26 01:25:50;;;;;;;5.95;1.73;;;2.20;99.90;;;;;;4969259;28;20095;-60
2020/12/26 01:28:16;;;;;;;5.32;1.60;;;2.30;99.90;;;;;;4968146;28;20031;-60
2020/12/26 01:30:42;;;;;;;3.00;1.30;;;2.40;99.90;;;;;;4969793;28;20073;-60
2020/12/26 01:33:08;;;;;;;8.10;1.67;;;2.40;99.90;;;;;;4966135;28;20117;-60
2020/12/26 01:35:33;;;;;;;3.72;1.60;;;2.40;99.90;;;;;;4971057;28;20078;-60
2020/12/26 01:38:00;;;;;;;5.45;1.58;;;2.40;99.90;;;;;;4967622;28;20050;-60
2020/12/26 01:40:25;;;;;;;4.57;1.55;;;2.40;99.90;;;;;;4969263;28;20917;-60
2020/12/26 01:42:51;;;;;;;3.30;1.83;;;2.40;99.90;;;;;;4971136;28;20035;-60
2020/12/26 01:45:17;;;;;;;6.50;1.95;;;2.40;99.90;;;;;;4966759;28;20035;-60
2020/12/26 01:47:43;;;;;;;9.45;2.30;;;2.40;99.90;;;;;;4969953;28;20041;-60
2020/12/26 01:50:09;;;;;;;4.45;1.50;;;2.30;99.90;;;;;;4967883;28;20034;-60
2020/12/26 01:52:35;;;;;;;7.88;1.95;;;2.30;99.90;;;;;;4969633;28;20554;-61
2020/12/26 01:55:02;;;;;;;6.20;1.33;;;2.30;99.90;;;;;;4967726;28;20398;-60
2020/12/26 01:57:35;;;;;;;6.55;1.92;;;2.30;99.90;;;;;;4969457;28;20475;-60
2020/12/26 02:00:06;;;;;;;4.22;1.70;;;2.30;99.90;;;;;;4967619;28;20057;-60
2020/12/26 02:02:32;;;;;;;6.20;1.50;;;2.30;99.90;;;;;;4968578;28;20342;-60
2020/12/26 02:04:58;;;;;;;5.85;1.50;;;2.30;99.90;;;;;;4965539;28;20054;-60
2020/12/26 02:07:25;;;;;;;5.10;1.90;;;2.30;99.90;;;;;;4999705;28;20082;-60
2020/12/26 02:09:54;;;;;;;10.05;2.70;;;2.30;99.90;;;;;;4966487;28;20159;-60
2020/12/26 02:12:20;;;;;;;7.93;2.05;;;2.20;99.90;;;;;;4968492;28;20030;-60
2020/12/26 02:14:47;;;;;;;6.07;1.90;;;2.30;99.90;;;;;;4966316;28;20444;-61
2020/12/26 02:17:13;;;;;;;5.68;2.08;;;2.40;99.90;;;;;;4966100;28;20030;-60
2020/12/26 02:19:38;;;;;;;6.20;1.92;;;2.30;99.90;;;;;;4967557;28;20062;-60
2020/12/26 02:22:04;;;;;;;7.82;2.65;;;2.40;99.90;;;;;;4968065;28;20705;-60
2020/12/26 02:24:30;;;;;;;7.07;2.30;;;2.40;99.90;;;;;;4948448;28;20050;-60
2020/12/26 02:26:56;;;;;;;8.57;2.05;;;2.50;99.90;;;;;;4968306;28;20029;-60
2020/12/26 02:29:21;;;;;;;13.13;2.13;;;2.60;99.90;;;;;;4968320;28;20130;-60
2020/12/26 02:31:47;;;;;;;4.35;1.85;;;2.60;99.90;;;;;;4969465;28;20110;-60
2020/12/26 02:34:13;;;;;;;7.82;1.40;;;2.60;99.90;;;;;;4967516;28;20473;-60
2020/12/26 02:36:39;;;;;;;3.47;1.40;;;2.60;99.90;;;;;;4967369;28;20038;-61
2020/12/26 02:39:05;;;;;;;4.43;1.50;;;2.70;99.90;;;;;;4966874;28;20054;-60
2020/12/26 02:41:32;;;;;;;8.63;1.90;;;2.60;99.90;;;;;;4967260;28;20395;-60
2020/12/26 02:43:57;;;;;;;5.15;2.40;;;2.60;99.90;;;;;;4967955;28;20085;-60
2020/12/26 02:46:23;;;;;;;8.40;2.58;;;2.70;99.90;;;;;;4966297;28;20486;-60
2020/12/26 02:48:49;;;;;;;7.15;2.20;;;2.70;99.90;;;;;;4967495;28;20524;-60
2020/12/26 02:51:15;;;;;;;5.05;2.35;;;2.70;99.90;;;;;;4969872;28;20031;-60
2020/12/26 02:53:40;;;;;;;8.40;2.42;;;2.70;99.90;;;;;;4964821;28;20441;-60
2020/12/26 02:56:10;;;;;;;4.82;1.55;;;2.70;99.90;;;;;;4965375;28;20348;-60
2020/12/26 02:58:37;;;;;;;5.68;2.08;;;2.70;99.90;;;;;;4966276;28;20157;-60
2020/12/26 03:01:03;;;;;;;2.55;1.38;;;2.80;99.90;;;;;;4967894;28;20237;-61
2020/12/26 03:03:29;;;;;;;5.03;1.20;;;2.80;99.90;;;;;;4967839;28;20966;-61
2020/12/26 03:05:54;;;;;;;4.20;1.00;;;2.80;99.90;;;;;;4967411;28;20056;-60
2020/12/26 03:08:20;;;;;;;8.57;1.10;;;2.70;99.90;;;;;;4968871;28;20057;-61
2020/12/26 03:10:46;;;;;;;4.97;0.80;;;2.70;99.90;;;;;;4966893;28;20116;-61
2020/12/26 03:13:12;;;;;;;1.17;0.63;;;2.70;99.90;;;;;;4962437;28;20034;-60
2020/12/26 03:15:37;;;;;;;7.15;1.15;;;2.70;99.90;;;;;;4965442;28;20030;-61
2020/12/26 03:18:03;;;;;;;3.88;1.00;;;2.70;99.90;;;;;;4965239;28;20030;-60
2020/12/26 03:20:29;;;;;;;9.75;0.77;;;2.70;99.90;;;;;;4964324;28;20058;-60
2020/12/26 03:22:55;;;;;;;3.42;0.90;;;2.70;99.90;;;;;;4964901;28;20075;-61
2020/12/26 03:25:20;;;;;;;3.60;0.75;;;2.70;99.90;;;;;;4963699;28;20201;-61
2020/12/26 03:27:46;;;;;;;5.80;0.98;;;2.80;99.90;;;;;;4962849;28;20772;-60
2020/12/26 03:30:12;;;;;;;6.55;1.05;;;2.70;99.90;;;;;;4965356;28;20345;-60
2020/12/26 03:32:38;;;;;;;4.90;0.80;;;2.80;99.90;;;;;;4966048;28;20591;-61
2020/12/26 03:35:05;;;;;;;4.07;0.90;;;2.80;99.90;;;;;;4965943;28;20031;-60
2020/12/26 03:37:31;;;;;;;3.05;0.80;;;2.80;99.90;;;;;;4964311;28;20569;-60
2020/12/26 03:39:56;;;;;;;6.25;1.15;;;2.90;99.90;;;;;;4966300;28;20590;-61
2020/12/26 03:42:22;;;;;;;4.10;0.90;;;2.90;99.90;;;;;;4965182;28;20023;-60
2020/12/26 03:44:48;;;;;;;5.28;0.77;;;2.90;99.90;;;;;;4965227;28;20073;-60
2020/12/26 03:47:14;;;;;;;5.60;0.80;;;2.90;99.90;;;;;;4965199;28;20034;-61
2020/12/26 03:49:39;;;;;;;3.17;0.93;;;2.90;99.90;;;;;;4967730;28;20069;-60
2020/12/26 03:52:05;;;;;;;4.65;1.00;;;2.90;99.90;;;;;;4964916;28;20023;-61
2020/12/26 03:54:31;;;;;;;4.00;0.85;;;2.90;99.90;;;;;;4980003;28;20413;-60
2020/12/26 03:56:57;;;;;;;3.40;0.93;;;2.90;99.90;;;;;;4966717;28;20026;-61
2020/12/26 03:59:24;;;;;;;7.88;0.90;;;2.90;99.90;;;;;;4965445;28;20149;-60
2020/12/26 04:01:50;;;;;;;1.88;0.60;;;2.90;99.90;;;;;;4963599;28;20369;-61
2020/12/26 04:04:16;;;;;;;8.00;1.45;;;2.90;99.90;;;;;;4961965;28;20082;-61
2020/12/26 04:06:45;;;;;;;2.15;1.20;;;2.90;99.90;;;;;;4965977;28;20212;-61
2020/12/26 04:09:14;;;;;;;3.35;0.95;;;2.90;99.90;;;;;;4964894;28;20558;-60
2020/12/26 04:11:40;;;;;;;5.63;1.75;;;2.90;99.90;;;;;;4997812;28;20039;-61
2020/12/26 04:14:06;;;;;;;4.50;1.10;;;2.90;99.90;;;;;;4965609;28;20056;-60
2020/12/26 04:16:32;;;;;;;3.72;0.70;;;3.00;99.90;;;;;;4965585;28;20039;-60
2020/12/26 04:18:58;;;;;;;3.13;0.77;;;2.90;99.90;;;;;;4965197;28;20108;-60
2020/12/26 04:21:26;;;;;;;4.75;1.05;;;2.90;99.90;;;;;;4966626;28;20761;-60
2020/12/26 04:23:52;;;;;;;2.25;0.63;;;2.90;99.90;;;;;;4996748;28;20132;-61
2020/12/26 04:26:19;;;;;;;5.78;1.20;;;2.90;99.90;;;;;;4966385;28;20042;-60
2020/12/26 04:28:45;;;;;;;5.78;1.02;;;2.90;99.90;;;;;;4965669;28;20069;-61
2020/12/26 04:31:11;;;;;;;3.00;0.80;;;2.90;99.90;;;;;;4967926;28;20532;-61
2020/12/26 04:33:37;;;;;;;12.20;1.63;;;2.90;99.90;;;;;;4962109;28;20426;-61
2020/12/26 04:36:04;;;;;;;2.08;0.90;;;2.90;99.90;;;;;;4967251;28;20034;-61
2020/12/26 04:38:31;;;;;;;5.00;1.55;;;3.00;99.90;;;;;;4963905;28;20687;-61
2020/12/26 04:40:57;;;;;;;2.95;1.10;;;3.00;99.90;;;;;;4968489;28;20043;-60
2020/12/26 04:43:24;;;;;;;6.18;1.05;;;2.90;99.90;;;;;;4961699;28;20478;-60
2020/12/26 04:45:53;;;;;;;4.38;1.42;;;3.00;99.90;;;;;;4967578;28;20046;-61
2020/12/26 04:48:25;;;;;;;1.27;0.68;;;3.00;99.90;;;;;;4966180;28;20023;-60
2020/12/26 04:50:56;;;;;;;3.65;1.30;;;2.90;99.90;;;;;;4967765;28;20089;-60
2020/12/26 04:53:30;;;;;;;8.35;1.17;;;3.00;99.90;;;;;;4968484;28;20597;-60
2020/12/26 04:55:58;;;;;;;4.28;1.10;;;3.00;99.90;;;;;;4970847;28;20440;-60
2020/12/26 04:58:26;;;;;;;3.58;0.98;;;3.10;99.90;;;;;;4970341;28;20035;-61
2020/12/26 05:00:51;;;;;;;2.78;0.90;;;3.20;99.90;;;;;;4970481;28;20130;-60
2020/12/26 05:03:17;;;;;;;5.18;1.00;;;3.20;99.90;;;;;;4966433;28;20724;-60
2020/12/26 05:05:44;;;;;;;3.05;0.90;;;3.20;99.90;;;;;;4970256;28;20545;-60
2020/12/26 05:08:11;;;;;;;7.80;1.30;;;3.20;99.90;;;;;;4966524;28;20549;-60
2020/12/26 05:10:38;;;;;;;9.88;1.73;;;3.20;99.90;;;;;;4970185;28;20110;-60
2020/12/26 05:13:05;;;;;;;5.72;1.05;;;3.20;99.90;;;;;;4967289;28;20344;-60
2020/12/26 05:15:31;;;;;;;6.10;0.80;;;3.20;99.90;;;;;;4969886;28;20088;-60
2020/12/26 05:17:57;;;;;;;7.00;1.20;;;3.30;99.90;;;;;;4969052;28;20032;-61
2020/12/26 05:20:27;;;;;;;8.15;1.17;;;3.30;99.90;;;;;;4970253;28;20483;-60
2020/12/26 05:23:09;;;;;;;4.30;0.95;;;3.30;99.90;;;;;;4965355;28;20904;-61
2020/12/26 05:26:05;;;;;;;2.58;0.82;;;3.30;99.90;;;;;;4964990;28;20039;-60
2020/12/26 05:28:33;;;;;;;5.25;1.30;;;3.40;99.90;;;;;;4963637;28;20046;-60
2020/12/26 05:31:06;;;;;;;4.25;0.90;;;3.40;99.90;;;;;;4969688;28;20470;-60
2020/12/26 05:33:33;;;;;;;6.75;1.20;;;3.40;99.90;;;;;;4966217;28;20030;-60
2020/12/26 05:36:04;;;;;;;9.02;1.40;;;3.40;99.90;;;;;;4969149;28;20121;-60
2020/12/26 05:38:31;;;;;;;4.05;1.20;;;3.30;99.90;;;;;;4965819;28;20050;-61
2020/12/26 05:40:58;;;;;;;5.20;1.10;;;3.40;99.90;;;;;;4965666;28;20567;-60
2020/12/26 05:43:29;;;;;;;2.70;0.95;;;3.40;99.90;;;;;;4965674;28;20502;-60
2020/12/26 05:45:56;;;;;;;12.18;1.98;;;3.40;99.90;;;;;;4970884;28;20053;-60
2020/12/26 05:48:23;;;;;;;5.63;1.27;;;3.40;99.90;;;;;;4967420;28;20034;-60
2020/12/26 05:50:54;;;;;;;7.72;2.47;;;3.30;99.90;;;;;;4967588;28;20419;-60
2020/12/26 05:53:25;;;;;;;7.38;3.10;;;3.40;99.90;;;;;;4964278;28;20037;-61
2020/12/26 05:55:51;;;;;;;12.27;3.30;;;3.40;99.90;;;;;;4964635;28;20054;-60
2020/12/26 05:58:24;;;;;;;7.07;2.40;;;3.40;99.90;;;;;;4968959;28;20485;-61
2020/12/26 06:00:52;;;;;;;9.48;2.58;;;3.30;99.90;;;;;;4962467;28;20026;-61
2020/12/26 06:03:25;;;;;;;5.07;1.67;;;3.40;99.90;;;;;;4990530;28;20038;-60
2020/12/26 06:05:53;;;;;;;6.50;1.90;;;3.40;99.90;;;;;;4967690;28;20402;-60
2020/12/26 06:08:20;;;;;;;5.68;2.17;;;3.40;99.90;;;;;;4965041;28;20030;-61
2020/12/26 06:11:00;;;;;;;8.80;1.88;;;3.40;99.90;;;;;;4965242;28;20031;-60
2020/12/26 06:13:28;;;;;;;6.63;2.47;;;3.50;99.90;;;;;;4960630;28;20398;-61
2020/12/26 06:16:01;;;;;;;4.88;1.45;;;3.50;99.90;;;;;;4963252;28;20038;-60
2020/12/26 06:18:31;;;;;;;6.45;1.48;;;3.50;99.90;;;;;;4966892;28;20041;-60
2020/12/26 06:20:57;;;;;;;7.80;2.15;;;3.50;99.90;;;;;;4964964;28;20553;-60
2020/12/26 06:23:24;;;;;;;4.93;1.27;;;3.60;99.90;;;;;;4964002;28;20058;-60
2020/12/26 06:25:53;;;;;;;4.13;1.30;;;3.60;99.90;;;;;;4962059;28;20260;-60
2020/12/26 06:28:30;;;;;;;4.50;1.20;;;3.60;99.90;;;;;;4966281;28;20104;-60
2020/12/26 06:30:59;;;;;;;3.72;1.13;;;3.60;99.90;;;;;;4967605;28;20373;-60
2020/12/26 06:33:27;;;;;;;7.07;1.67;;;3.60;99.90;;;;;;4963986;28;20461;-61
2020/12/26 06:35:55;;;;;;;8.90;1.48;;;3.60;99.90;;;;;;4963310;28;20041;-61
2020/12/26 06:38:29;;;;;;;6.53;1.30;;;3.60;99.90;;;;;;4967840;28;20055;-61
2020/12/26 06:41:07;;;;;;;3.20;1.23;;;3.60;99.90;;;;;;4966926;28;20475;-61
2020/12/26 06:43:40;;;;;;;6.35;1.10;;;3.60;99.90;;;;;;4960562;28;20034;-61
2020/12/26 06:46:29;;;;;;;8.80;1.45;;;3.60;99.90;;;;;;4966114;28;20134;-60
2020/12/26 06:48:58;;;;;;;10.70;1.33;;;3.80;99.90;;;;;;4965792;28;20498;-61
2020/12/26 06:51:25;;;;;;;8.88;1.60;;;3.90;99.90;;;;;;4964232;28;20039;-63
2020/12/26 06:53:53;;;;;;;4.90;1.35;;;3.90;99.90;;;;;;4962196;28;20836;-60
2020/12/26 06:56:33;;;;;;;9.00;1.45;;;4.00;99.90;;;;;;4964569;28;20518;-61
2020/12/26 06:59:03;;;;;;;3.92;1.33;;;4.00;99.90;;;;;;4966720;28;20038;-61
2020/12/26 07:01:29;;;;;;;3.88;1.48;;;3.90;99.90;;;;;;4963354;28;20061;-60
2020/12/26 07:04:10;;;;;;;6.78;1.48;;;3.90;99.90;;;;;;4965988;28;20038;-60
2020/12/26 07:06:37;;;;;;;6.22;1.95;;;3.90;99.90;;;;;;4963273;28;20124;-60
2020/12/26 07:09:04;;;;;;;11.15;1.48;;;3.90;99.90;;;;;;4963494;28;20450;-60
2020/12/26 07:11:30;;;;;;;7.63;1.92;;;3.90;99.90;;;;;;4966140;28;20376;-60
2020/12/26 07:13:56;;;;;;;10.70;1.60;;;4.00;99.90;;;;;;4963276;28;20054;-60
2020/12/26 07:16:47;;;;;;;14.55;1.52;;;4.00;99.90;;;;;;4967045;28;20785;-60
2020/12/26 07:19:32;;;;;;;5.10;1.65;;;4.10;99.90;;;;;;4964945;28;20041;-60
2020/12/26 07:22:20;;;;;;;10.18;1.83;;;4.20;99.90;;;;;;4964308;28;20035;-60
2020/12/26 07:24:50;;;;;;;8.43;1.35;;;4.20;99.90;;;;;;4963575;28;20046;-60
2020/12/26 07:27:28;;;;;;;4.82;1.25;;;4.20;99.90;;;;;;4949998;28;20081;-60
2020/12/26 07:30:13;;;;;;;8.23;1.80;;;4.20;99.90;;;;;;4966778;28;20046;-60
2020/12/26 07:32:57;;;;;;;4.50;0.98;;;4.20;99.90;;;;;;4965885;28;20424;-60
2020/12/26 07:35:23;;;;;;;10.82;1.75;;;4.20;99.90;;;;;;4960256;28;20604;-60
2020/12/26 07:37:54;;;;;;;5.75;1.30;;;4.20;99.90;;;;;;4963165;28;20038;-60
2020/12/26 07:40:22;;;;;;;7.45;1.50;;;4.10;99.90;;;;;;4965151;28;20049;-60
2020/12/26 07:42:49;;;;;;;9.40;1.33;;;4.10;99.90;;;;;;4964636;28;20022;-60
2020/12/26 07:45:17;;;;;;;8.55;1.75;;;4.10;99.90;;;;;;4962261;28;20406;-59
2020/12/26 07:47:48;;;;;;;11.68;1.77;;;4.00;99.90;;;;;;4962683;28;20177;-60
2020/12/26 07:50:16;;;;;;;9.00;1.83;;;4.00;99.90;;;;;;4964878;28;20655;-61
2020/12/26 07:52:55;;;;;;;7.53;1.67;;;4.00;99.90;;;;;;4962452;28;20570;-61
2020/12/26 07:55:21;;;;;;;7.75;1.40;;;3.90;99.90;;;;;;4967205;28;20072;-60
2020/12/26 07:57:48;;;;;;;8.65;2.38;;;3.90;99.90;;;;;;4966970;28;20039;-60
2020/12/26 08:00:29;;;;;;;8.65;1.40;;;3.80;99.90;;;;;;4965822;28;20405;-60
2020/12/26 08:02:56;;;;;;;;;;;3.70;99.90;;;;;;4967458;28;20042;-60
2020/12/26 08:05:23;;;;;;;8.45;1.50;;;3.70;99.90;;;;;;4963845;28;19929;-61
2020/12/26 08:07:49;;;;;;;7.00;1.60;;;3.70;99.90;;;;;;4964328;28;20114;-60
2020/12/26 08:10:16;;;;;;;8.40;2.22;;;3.60;99.90;;;;;;4963587;28;20508;-61
2020/12/26 08:12:58;;;;;;;8.60;1.80;;;3.60;99.90;;;;;;4964530;28;20030;-61
2020/12/26 08:15:26;;;;;;;6.50;2.08;;;3.60;99.90;;;;;;4967362;28;20030;-60
2020/12/26 08:17:55;;;;;;;10.32;1.85;;;3.70;99.90;;;;;;4966397;28;20026;-61
2020/12/26 08:20:22;;;;;;;9.13;1.80;;;3.70;99.90;;;;;;4967450;28;20027;-60
2020/12/26 08:22:48;;;;;;;16.92;2.22;;;3.80;99.90;;;;;;4965932;28;20493;-61
2020/12/26 08:25:16;;;;;;;7.40;2.22;;;3.90;99.90;;;;;;4965226;28;20129;-60
2020/12/26 08:27:42;;;;;;;13.57;2.35;;;4.10;99.90;;;;;;4968614;28;20130;-60
2020/12/26 08:30:12;;;;;;;24.55;3.20;;;4.20;99.90;;;;;;4969231;28;20048;-60
2020/12/26 08:33:05;;;;;;;14.15;2.20;;;4.20;99.90;;;;;;4958753;28;20082;-60
2020/12/26 08:35:32;;;;;;;12.52;2.30;;;4.30;99.90;;;;;;4968677;28;20128;-60
2020/12/26 08:38:06;;;;;;;11.55;4.85;;;4.30;99.90;;;;;;4967106;28;20038;-60
2020/12/26 08:40:36;;;;;;;8.38;1.98;;;4.20;99.90;;;;;;4966384;28;20803;-60
2020/12/26 08:43:11;;;;;;;7.00;2.03;;;4.30;99.90;;;;;;4963228;28;20524;-60
2020/12/26 08:45:37;;;;;;;13.52;1.88;;;4.30;99.90;;;;;;4969918;28;20058;-60
2020/12/26 08:48:15;;;;;;;7.93;2.20;;;4.30;99.90;;;;;;4969185;28;20041;-61
2020/12/26 08:50:41;;;;;;;12.65;2.45;;;4.30;99.90;;;;;;4979870;28;22279;-60
2020/12/26 08:53:09;;;;;;;11.38;2.45;;;4.40;99.90;;;;;;4964075;28;20046;-61
2020/12/26 08:55:45;;;;;;;10.82;2.35;;;4.30;99.90;;;;;;4970191;28;20035;-61
2020/12/26 08:58:21;;;;;;;16.92;2.70;;;4.30;99.90;;;;;;4963170;28;20026;-61
2020/12/26 09:00:47;;;;;;;10.13;2.67;;;4.30;99.90;;;;;;4968733;28;20037;-60
2020/12/26 09:03:19;;;;;;;12.95;2.35;;;4.30;99.90;;;;;;4968520;28;20030;-61
2020/12/26 09:05:45;;;;;;;12.38;2.97;;;4.30;99.90;;;;;;4967470;28;20383;-61
2020/12/26 09:08:11;;;;;;;12.68;2.50;;;4.40;99.90;;;;;;4969024;28;20549;-60
2020/12/26 09:10:38;;;;;;;11.05;2.25;;;4.40;99.90;;;;;;4962591;28;20049;-60
2020/12/26 09:13:13;;;;;;;14.38;3.20;;;4.30;99.90;;;;;;4962313;28;20038;-60
2020/12/26 09:15:56;;;;;;;19.02;5.47;;;4.30;99.90;;;;;;4969648;28;20581;-60
2020/12/26 09:18:24;;;;;;;9.95;1.90;;;4.40;99.90;;;;;;4968311;28;20034;-60
2020/12/26 09:20:59;;;;;;;13.18;2.83;;;4.40;99.90;;;;;;4968465;28;20094;-60
2020/12/26 09:23:34;;;;;;;13.82;2.90;;;4.40;99.90;;;;;;4964195;28;20041;-61
2020/12/26 09:26:19;;;;;;;14.10;3.05;;;4.50;99.90;;;;;;4963800;28;20043;-60
2020/12/26 09:28:58;;;;;;;12.75;2.53;;;4.50;99.90;;;;;;4965993;28;20759;-60
2020/12/26 09:31:29;;;;;;;12.85;2.78;;;4.60;99.90;;;;;;4947487;28;20034;-60
2020/12/26 09:33:58;;;;;;;16.75;3.38;;;4.60;99.90;;;;;;4998631;28;20050;-60
2020/12/26 09:36:26;;;;;;;19.45;3.58;;;4.70;99.90;;;;;;4962315;28;20034;-60
2020/12/26 09:38:53;;;;;;;14.63;3.10;;;4.70;99.90;;;;;;4966346;28;20062;-60
2020/12/26 09:41:20;;;;;;;18.55;3.83;;;4.80;99.90;;;;;;4968693;28;20875;-60
2020/12/26 09:43:48;;;;;;;13.50;2.78;;;4.90;99.90;;;;;;4964641;28;20491;-60
2020/12/26 09:46:14;;;;;;;14.98;3.65;;;4.90;99.90;;;;;;4968371;28;20674;-60
2020/12/26 09:48:40;;;;;;;12.65;4.50;;;5.00;99.90;;;;;;4969653;28;20042;-60
2020/12/26 09:51:19;;;;;;;17.77;3.88;;;4.90;99.90;;;;;;4967733;28;20042;-60
2020/12/26 09:53:45;;;;;;;18.17;4.55;;;5.00;99.90;;;;;;4966652;28;20121;-61
2020/12/26 09:56:12;;;;;;;21.17;3.83;;;5.10;99.90;;;;;;4966135;28;20035;-60
2020/12/26 09:58:39;;;;;;;13.63;3.67;;;5.10;99.90;;;;;;4967601;28;20474;-60
2020/12/26 10:01:05;;;;;;;18.92;4.22;;;5.20;99.90;;;;;;4968437;28;20089;-60
2020/12/26 10:03:32;;;;;;;15.35;3.60;;;5.20;99.90;;;;;;4963891;28;20038;-60
2020/12/26 10:05:57;;;;;;;15.32;3.78;;;5.20;99.90;;;;;;4964436;28;20057;-61
2020/12/26 10:08:23;;;;;;;18.73;3.75;;;5.30;99.90;;;;;;4968013;28;20031;-60
2020/12/26 10:10:49;;;;;;;17.45;3.75;;;5.30;99.90;;;;;;4967065;28;20031;-60
2020/12/26 10:13:15;;;;;;;14.88;3.78;;;5.40;99.90;;;;;;4965494;28;20077;-60
2020/12/26 10:15:41;;;;;;;19.83;5.30;;;5.40;99.90;;;;;;4970260;28;20042;-60
2020/12/26 10:18:07;;;;;;;25.55;5.35;;;5.50;99.90;;;;;;4969803;28;20049;-60
2020/12/26 10:20:34;;;;;;;16.27;4.47;;;5.50;99.90;;;;;;4966451;28;20034;-60
2020/12/26 10:22:59;;;;;;;14.00;4.25;;;5.60;99.90;;;;;;4967205;28;20038;-61
2020/12/26 10:25:25;;;;;;;12.10;3.75;;;5.60;99.90;;;;;;4966733;28;20059;-60
2020/12/26 10:27:54;;;;;;;14.90;4.03;;;5.60;99.90;;;;;;4969610;28;20670;-60
2020/12/26 10:30:21;;;;;;;14.85;4.63;;;5.70;99.90;;;;;;4968656;28;20031;-60
2020/12/26 10:32:47;;;;;;;16.15;4.07;;;5.70;99.90;;;;;;4968189;28;20030;-60
2020/12/26 10:35:14;;;;;;;15.90;4.10;;;5.70;99.90;;;;;;4966450;28;20031;-61
2020/12/26 10:37:39;;;;;;;19.17;4.68;;;5.80;99.90;;;;;;4963055;28;20035;-61
2020/12/26 10:40:07;;;;;;;20.75;4.50;;;5.70;99.90;;;;;;4968155;28;20051;-61
2020/12/26 10:42:33;;;;;;;18.40;4.70;;;5.80;99.90;;;;;;4963886;28;20030;-61
2020/12/26 10:44:58;;;;;;;18.15;5.05;;;5.80;99.90;;;;;;4964497;28;20043;-61
2020/12/26 10:47:24;;;;;;;22.70;5.85;;;5.90;99.90;;;;;;4966878;28;20845;-61
2020/12/26 10:49:50;;;;;;;17.65;5.72;;;5.90;99.90;;;;;;4962930;28;20038;-61
2020/12/26 10:52:16;;;;;;;20.30;5.47;;;5.90;99.90;;;;;;4959990;28;20038;-60
2020/12/26 10:54:42;;;;;;;17.65;6.22;;;5.90;99.90;;;;;;4963986;28;20038;-60
2020/12/26 10:57:07;;;;;;;24.52;6.53;;;6.00;99.90;;;;;;4966056;28;20027;-61
2020/12/26 10:59:33;;;;;;;18.30;5.93;;;6.00;99.90;;;;;;4966958;28;20031;-61
2020/12/26 11:02:01;;;;;;;25.63;7.78;;;6.00;99.90;;;;;;4948768;28;20045;-61
2020/12/26 11:04:27;;;;;;;24.85;6.43;;;6.00;99.90;;;;;;4964502;28;20148;-60
2020/12/26 11:06:53;;;;;;;18.17;5.93;;;6.00;99.90;;;;;;4966074;28;20031;-61
2020/12/26 11:09:19;;;;;;;15.98;5.60;;;6.10;99.90;;;;;;4968146;28;20564;-61
2020/12/26 11:11:49;;;;;;;11.88;6.15;;;6.00;99.90;;;;;;4965588;28;20585;-60
2020/12/26 11:14:15;;;;;;;18.23;6.15;;;6.10;99.90;;;;;;4963705;28;20407;-60
2020/12/26 11:16:46;;;;;;;13.88;6.13;;;6.10;99.90;;;;;;4968637;28;20043;-61
2020/12/26 11:19:12;;;;;;;19.65;6.22;;;6.10;99.90;;;;;;4967363;28;20058;-60
2020/12/26 11:21:38;;;;;;;15.82;5.80;;;6.10;99.90;;;;;;4966011;28;20125;-60
2020/12/26 11:24:04;;;;;;;16.23;5.85;;;6.10;99.90;;;;;;4966758;28;20529;-60
2020/12/26 11:26:29;;;;;;;12.63;5.13;;;6.10;99.90;;;;;;4968427;28;20870;-60
2020/12/26 11:28:55;;;;;;;15.88;5.03;;;6.10;99.90;;;;;;4964713;28;20125;-60
2020/12/26 11:31:25;;;;;;;11.07;5.40;;;6.10;99.90;;;;;;4967568;28;20041;-60
2020/12/26 11:33:51;;;;;;;13.43;4.80;;;6.10;99.90;;;;;;4966032;28;20034;-60
2020/12/26 11:36:22;;;;;;;18.65;5.20;;;6.20;99.90;;;;;;4967505;28;20752;-60
2020/12/26 11:38:48;;;;;;;12.32;4.45;;;6.30;99.90;;;;;;4963021;28;20524;-60
2020/12/26 11:41:18;;;;;;;17.85;4.72;;;6.30;99.90;;;;;;4965043;28;20039;-60
2020/12/26 11:43:43;;;;;;;12.50;3.80;;;6.40;99.90;;;;;;4962109;28;20027;-60
2020/12/26 11:46:10;;;;;;;12.52;5.22;;;6.50;99.90;;;;;;4965903;28;20077;-60
2020/12/26 11:48:36;;;;;;;10.23;3.97;;;6.40;99.90;;;;;;4966354;28;20874;-60
2020/12/26 11:51:03;;;;;;;21.23;4.32;;;6.50;99.90;;;;;;4968184;28;20030;-60
2020/12/26 11:53:29;;;;;;;12.55;3.75;;;6.50;99.90;;;;;;4964272;28;20031;-60
2020/12/26 11:55:55;;;;;;;10.20;4.15;;;6.50;99.90;;;;;;4962605;28;20039;-60
2020/12/26 11:58:23;;;;;;;10.60;3.47;;;6.50;99.90;;;;;;4961528;28;20277;-60
2020/12/26 12:00:51;;;;;;;13.05;3.33;;;6.60;99.90;;;;;;4967797;28;20039;-60
2020/12/26 12:03:17;;;;;;;11.98;3.03;;;6.50;99.90;;;;;;4963239;28;20077;-60
2020/12/26 12:05:44;;;;;;;6.05;2.50;;;6.60;99.90;;;;;;4965796;28;20074;-60
2020/12/26 12:08:10;;;;;;;11.23;3.40;;;6.60;99.90;;;;;;4963071;28;20417;-60
2020/12/26 12:10:36;;;;;;;11.43;3.50;;;6.70;99.90;;;;;;4963700;28;20047;-60
2020/12/26 12:13:02;;;;;;;9.70;2.80;;;6.70;99.90;;;;;;4962597;28;20030;-60
2020/12/26 12:15:28;;;;;;;7.43;2.38;;;6.70;99.90;;;;;;4966564;28;20049;-60
2020/12/26 12:17:53;;;;;;;13.93;3.08;;;6.70;99.90;;;;;;4965730;28;20034;-60
2020/12/26 12:20:19;;;;;;;7.60;2.60;;;6.80;99.90;;;;;;4969297;28;20030;-61
2020/12/26 12:22:45;;;;;;;12.80;3.25;;;6.80;99.90;;;;;;4967188;28;20069;-60
2020/12/26 12:25:11;;;;;;;10.05;2.65;;;6.80;99.90;;;;;;4965335;28;20133;-60
2020/12/26 12:27:37;;;;;;;7.63;2.78;;;6.90;99.90;;;;;;4964868;28;20031;-61
2020/12/26 12:30:03;;;;;;;11.80;3.65;;;6.90;99.90;;;;;;4966591;28;20078;-61
2020/12/26 12:32:28;;;;;;;14.07;3.25;;;6.90;99.90;;;;;;4966507;28;20030;-61
2020/12/26 12:34:54;;;;;;;9.27;2.47;;;7.00;99.90;;;;;;4964657;28;20042;-61
2020/12/26 12:37:20;;;;;;;12.52;3.28;;;7.00;99.90;;;;;;4965723;28;20030;-60
2020/12/26 12:39:46;;;;;;;14.05;6.40;;;7.00;99.90;;;;;;4967358;28;20132;-61
2020/12/26 12:42:12;;;;;;;12.68;5.32;;;7.00;99.90;;;;;;4962667;28;20037;-60
2020/12/26 12:44:37;;;;;;;14.23;5.22;;;7.10;99.90;;;;;;4961614;28;20853;-61
2020/12/26 12:47:03;;;;;;;15.52;4.70;;;7.00;99.90;;;;;;4963584;28;20495;-61
2020/12/26 12:49:29;;;;;;;13.02;3.65;;;7.00;99.90;;;;;;4966918;28;20799;-61
2020/12/26 12:51:55;;;;;;;16.17;3.13;;;7.10;99.90;;;;;;4965977;28;20069;-61
2020/12/26 12:54:21;;;;;;;11.10;3.53;;;7.10;99.90;;;;;;4965055;28;20117;-61
2020/12/26 12:56:47;;;;;;;14.85;3.45;;;7.10;99.90;;;;;;4967461;28;20041;-61